KBXK

Buckeye Municipal Airport

Buckeye, Arizona, USA
METAR KBXK 192235Z AUTO 15005KT 10SM 41/15 A2976 RMK AO1
Observed Flight Rules
Aug-19 @ 22:35 UTC (32 minutes ago)
Wind Visibility
150° at 5 knots 10 miles
Temperatures Readings
Current 41°C / 106°F
Dewpoint 15°C / 59°F
Humidity 22%
Altimeter 29.76" Hg
Pressure 1008 hPa
Elevation 315
METAR KBXK 192235Z AUTO 15005KT 10SM 41/15 A2976 RMK AO1
Observed Flight Rules
Aug-19 @ 22:35 UTC
(32 minutes ago)
Wind Visibility
150° at 5 knots 10 miles
Temperature Dewpoint
41°C / 106°F 15°C / 59°F
Humidity Altimeter Pressure
22% 29.76" Hg 1008 hPa